Time;durP1;ratioP1;P1;durP2;ratioP2;P2;SDS_P1;SDS_P2;PMS_P1;PMS_P2;Temp;Humidity;BMP_temperature;BMP_pressure;BME280_temperature;BME280_humidity;BME280_pressure;Samples;Min_cycle;Max_cycle;Signal;HPM_P1;HPM_P2
2024/04/02 00:02:15;;;;;;;1.13;0.60;;;;;;;10.64;45.19;99875.97;5008838;28;20064;-77
2024/04/02 00:04:42;;;;;;;2.22;0.90;;;;;;;10.62;45.32;99881.59;5012604;28;20037;-77
2024/04/02 00:07:09;;;;;;;2.53;0.85;;;;;;;10.64;45.08;99884.16;5011287;28;20042;-77
2024/04/02 00:09:36;;;;;;;1.65;0.90;;;;;;;10.60;44.63;99881.75;5007345;28;20053;-77
2024/04/02 00:12:02;;;;;;;1.20;0.70;;;;;;;10.60;44.69;99887.22;5009662;28;20045;-77
2024/04/02 00:14:29;;;;;;;1.48;0.80;;;;;;;10.59;45.27;99890.09;5007924;28;20049;-77
2024/04/02 00:16:55;;;;;;;1.75;0.70;;;;;;;10.58;44.58;99893.84;4990508;28;20054;-77
2024/04/02 00:19:22;;;;;;;1.33;0.80;;;;;;;10.57;45.17;99889.41;4999668;28;20049;-77
2024/04/02 00:21:48;;;;;;;2.20;0.82;;;;;;;10.55;45.26;99895.06;5008861;28;20045;-77
2024/04/02 00:24:16;;;;;;;2.15;0.90;;;;;;;10.58;45.12;99891.13;5010244;28;20494;-77
2024/04/02 00:26:42;;;;;;;1.42;0.80;;;;;;;10.54;45.42;99893.31;5017502;28;20046;-77
2024/04/02 00:29:09;;;;;;;1.80;0.80;;;;;;;10.54;45.26;99892.47;4991230;28;20069;-77
2024/04/02 00:31:35;;;;;;;2.20;0.93;;;;;;;10.54;44.72;99892.47;4994627;28;20045;-77
2024/04/02 00:34:02;;;;;;;0.85;0.70;;;;;;;10.53;44.90;99896.19;5002530;28;20038;-77
2024/04/02 00:36:28;;;;;;;1.33;0.80;;;;;;;10.51;44.75;99885.38;5012703;28;20088;-77
2024/04/02 00:38:55;;;;;;;1.63;0.80;;;;;;;10.51;44.84;99898.22;5009423;28;20358;-77
2024/04/02 00:41:22;;;;;;;1.85;0.70;;;;;;;10.51;45.28;99896.34;5008905;28;20041;-77
2024/04/02 00:43:49;;;;;;;2.75;0.70;;;;;;;10.50;44.93;99897.34;4993543;28;20057;-76
2024/04/02 00:46:16;;;;;;;2.83;0.85;;;;;;;10.48;45.23;99899.38;5011526;28;20045;-76
2024/04/02 00:48:43;;;;;;;1.80;0.80;;;;;;;10.49;45.38;99894.75;5011874;28;20088;-77
2024/04/02 00:51:09;;;;;;;2.90;0.70;;;;;;;10.47;45.10;99894.09;5012803;28;20047;-77
2024/04/02 00:53:36;;;;;;;2.03;0.60;;;;;;;10.46;45.36;99904.16;5014091;28;20524;-77
2024/04/02 00:56:03;;;;;;;1.90;0.70;;;;;;;10.46;45.30;99912.38;5009583;28;20046;-77
2024/04/02 00:58:32;;;;;;;1.08;0.68;;;;;;;10.47;44.81;99913.22;5007581;28;20053;-77
2024/04/02 01:00:58;;;;;;;1.42;0.70;;;;;;;10.44;45.06;99911.66;5011866;28;20412;-77
2024/04/02 01:03:25;;;;;;;1.10;0.70;;;;;;;10.44;44.77;99916.28;5020229;28;20053;-76
2024/04/02 01:05:52;;;;;;;2.20;0.85;;;;;;;10.44;45.26;99916.28;5007090;28;20049;-76
2024/04/02 01:08:19;;;;;;;1.98;0.90;;;;;;;10.43;44.98;99920.88;5009150;28;20037;-76
2024/04/02 01:10:45;;;;;;;1.95;0.70;;;;;;;10.42;45.40;99926.50;5009158;28;20037;-77
2024/04/02 01:13:13;;;;;;;1.52;0.70;;;;;;;10.43;45.63;99930.97;5007419;28;20497;-77
2024/04/02 01:15:40;;;;;;;1.65;0.80;;;;;;;10.43;45.09;99933.69;4994518;28;20033;-77
2024/04/02 01:18:07;;;;;;;1.30;0.73;;;;;;;10.41;45.13;99931.09;4986460;28;20421;-77
2024/04/02 01:20:33;;;;;;;1.33;0.73;;;;;;;10.40;45.06;99934.84;5008979;28;20294;-76
2024/04/02 01:23:00;;;;;;;1.77;0.70;;;;;;;10.39;45.22;99935.91;4995893;28;20447;-77
2024/04/02 01:25:27;;;;;;;2.40;0.90;;;;;;;10.40;45.36;99939.50;4995831;28;20037;-77
2024/04/02 01:27:54;;;;;;;1.20;0.70;;;;;;;10.36;44.93;99941.66;4994731;28;20064;-77
2024/04/02 01:30:20;;;;;;;1.40;0.60;;;;;;;10.34;44.83;99940.94;5012582;28;20091;-77
2024/04/02 01:32:51;;;;;;;1.20;0.70;;;;;;;10.36;45.15;99943.53;5009937;28;20042;-77
2024/04/02 01:35:17;;;;;;;2.47;0.80;;;;;;;10.31;45.12;99941.28;4993322;28;20041;-77
2024/04/02 01:37:44;;;;;;;1.52;0.77;;;;;;;10.31;45.54;99957.69;4994442;28;20477;-77
2024/04/02 01:40:10;;;;;;;1.98;0.75;;;;;;;10.29;45.24;99951.50;5019619;28;20679;-77
2024/04/02 01:42:39;;;;;;;2.00;0.80;;;;;;;10.30;45.33;99957.84;5013221;28;20041;-77
2024/04/02 01:45:05;;;;;;;2.08;0.80;;;;;;;10.28;45.19;99951.66;5013114;28;20038;-77
2024/04/02 01:47:32;;;;;;;1.58;0.70;;;;;;;10.27;45.60;99956.28;5011237;28;20160;-77
2024/04/02 01:49:58;;;;;;;2.33;0.77;;;;;;;10.26;45.23;99954.53;5011212;28;20048;-77
2024/04/02 01:52:25;;;;;;;2.30;0.80;;;;;;;10.24;45.03;99967.50;5020608;28;20045;-76
2024/04/02 01:54:51;;;;;;;2.13;0.80;;;;;;;10.23;45.56;99955.69;5019333;28;20041;-77
2024/04/02 01:57:18;;;;;;;0.98;0.47;;;;;;;10.24;45.48;99953.84;5013882;28;20051;-76
2024/04/02 01:59:45;;;;;;;1.33;0.65;;;;;;;10.26;45.43;99961.88;5014993;28;20041;-77
2024/04/02 02:02:12;;;;;;;2.05;0.70;;;;;;;10.23;45.07;99968.53;5021429;28;20054;-77
2024/04/02 02:04:38;;;;;;;1.23;0.65;;;;;;;10.22;45.56;99967.69;5017844;28;20037;-77
2024/04/02 02:07:05;;;;;;;1.50;0.60;;;;;;;10.22;45.56;99964.09;5008335;28;20041;-77
2024/04/02 02:09:31;;;;;;;1.55;0.90;;;;;;;10.21;45.26;99963.22;5015127;28;20037;-77
2024/04/02 02:11:58;;;;;;;2.28;0.80;;;;;;;10.21;45.33;99973.28;5006481;28;20045;-77
2024/04/02 02:14:24;;;;;;;1.95;0.60;;;;;;;10.21;45.36;99959.63;5014074;28;20048;-77
2024/04/02 02:16:52;;;;;;;1.40;0.73;;;;;;;10.22;45.38;99969.56;5017993;28;20037;-77
2024/04/02 02:19:18;;;;;;;1.05;0.68;;;;;;;10.21;45.42;99974.16;5014413;28;20097;-77
2024/04/02 02:21:47;;;;;;;1.77;0.73;;;;;;;10.23;45.87;99976.75;4991384;28;20034;-77
2024/04/02 02:24:13;;;;;;;0.95;0.57;;;;;;;10.21;45.58;99965.97;5010778;28;20477;-76
2024/04/02 02:26:40;;;;;;;2.45;0.80;;;;;;;10.22;45.76;99975.88;5016411;28;20099;-77
2024/04/02 02:29:06;;;;;;;1.25;0.60;;;;;;;10.22;45.63;99973.16;5019735;28;20095;-77
2024/04/02 02:31:35;;;;;;;1.73;0.77;;;;;;;10.23;46.01;99979.47;5019177;28;20548;-77
2024/04/02 02:34:03;;;;;;;2.92;1.00;;;;;;;10.27;45.54;99985.47;5012297;28;20053;-77
2024/04/02 02:36:30;;;;;;;2.25;0.80;;;;;;;10.24;45.83;99987.50;5002286;28;20046;-76
2024/04/02 02:38:56;;;;;;;1.10;0.65;;;;;;;10.25;45.63;99988.38;5020859;28;20041;-77
2024/04/02 02:41:23;;;;;;;2.35;0.73;;;;;;;10.27;45.58;99988.22;4997579;28;20049;-77
2024/04/02 02:43:49;;;;;;;1.80;0.85;;;;;;;10.26;45.80;99981.88;4998120;28;20056;-76
2024/04/02 02:46:16;;;;;;;0.77;0.70;;;;;;;10.27;46.04;99982.75;5014393;28;20069;-77
2024/04/02 02:48:42;;;;;;;1.63;0.70;;;;;;;10.27;45.91;99989.09;5008069;28;20103;-76
2024/04/02 02:51:11;;;;;;;2.40;0.90;;;;;;;10.28;46.04;99981.75;5014031;28;20037;-76
2024/04/02 02:53:36;;;;;;;2.13;0.80;;;;;;;10.27;45.49;99996.44;5013175;28;20042;-76
2024/04/02 02:56:04;;;;;;;2.10;1.00;;;;;;;10.28;45.53;100006.34;5014561;28;20044;-77
2024/04/02 02:58:30;;;;;;;3.22;0.85;;;;;;;10.27;45.44;100000.03;5017307;28;20045;-77
2024/04/02 03:00:57;;;;;;;2.17;0.90;;;;;;;10.28;45.89;100007.22;5015323;28;20816;-77
2024/04/02 03:03:23;;;;;;;2.88;1.00;;;;;;;10.28;45.41;100004.47;5003026;28;20049;-77
2024/04/02 03:05:56;;;;;;;2.30;0.90;;;;;;;10.30;45.88;100007.06;5001684;28;20033;-77
2024/04/02 03:08:24;;;;;;;1.60;0.80;;;;;;;10.28;45.81;100007.22;4993004;28;20048;-77
2024/04/02 03:10:59;;;;;;;2.20;1.00;;;;;;;10.29;45.99;100006.22;5012673;28;20033;-76
2024/04/02 03:13:25;;;;;;;2.35;0.98;;;;;;;10.27;45.57;100010.09;5017254;28;20052;-76
2024/04/02 03:15:52;;;;;;;2.67;0.90;;;;;;;10.27;45.74;100013.69;5003518;28;20029;-76
2024/04/02 03:18:18;;;;;;;2.72;0.98;;;;;;;10.28;45.67;100020.03;5017263;28;20501;-77
2024/04/02 03:20:45;;;;;;;2.08;1.02;;;;;;;10.27;45.64;100013.69;5000215;28;20455;-77
2024/04/02 03:23:12;;;;;;;3.85;0.93;;;;;;;10.27;45.46;100024.63;5009909;28;20045;-76
2024/04/02 03:25:40;;;;;;;2.00;0.95;;;;;;;10.29;45.99;100025.34;5006330;28;20238;-77
2024/04/02 03:28:07;;;;;;;2.20;1.00;;;;;;;10.28;45.57;100028.22;5013549;28;20037;-77
2024/04/02 03:30:34;;;;;;;2.83;0.98;;;;;;;10.27;45.55;100032.84;5012815;28;20092;-77
2024/04/02 03:33:00;;;;;;;2.33;0.85;;;;;;;10.27;46.15;100023.78;5007052;28;20042;-77
2024/04/02 03:35:27;;;;;;;1.33;0.75;;;;;;;10.26;45.89;100028.38;5009490;28;20087;-77
2024/04/02 03:37:54;;;;;;;1.58;1.05;;;;;;;10.27;46.30;100029.25;4996646;28;20044;-77
2024/04/02 03:40:21;;;;;;;1.75;0.80;;;;;;;10.24;46.09;100031.25;5020118;28;20148;-77
2024/04/02 03:42:49;;;;;;;2.17;0.77;;;;;;;10.27;45.51;100038.31;5018138;28;20065;-77
2024/04/02 03:45:16;;;;;;;1.33;0.80;;;;;;;10.24;46.09;100044.06;5012566;28;20072;-77
2024/04/02 03:47:42;;;;;;;1.90;0.80;;;;;;;10.24;45.50;100035.88;5010173;28;20041;-77
2024/04/02 03:50:09;;;;;;;2.15;0.82;;;;;;;10.23;45.53;100042.38;5009655;28;20523;-77
2024/04/02 03:52:35;;;;;;;1.25;1.00;;;;;;;10.23;45.52;100042.38;5014160;28;20528;-77
2024/04/02 03:55:02;;;;;;;4.28;0.95;;;;;;;10.22;45.44;100041.50;5013207;28;20042;-77
2024/04/02 03:57:28;;;;;;;2.65;1.00;;;;;;;10.22;46.31;100043.38;5013991;28;20037;-77
2024/04/02 03:59:56;;;;;;;2.47;0.75;;;;;;;10.23;46.03;100042.38;5012809;28;20480;-76
2024/04/02 04:02:22;;;;;;;2.22;0.80;;;;;;;10.22;45.92;100048.84;5008827;28;20042;-77
2024/04/02 04:04:49;;;;;;;1.88;0.88;;;;;;;10.20;45.73;100040.78;5002591;28;20044;-77
2024/04/02 04:07:15;;;;;;;2.00;1.10;;;;;;;10.22;45.61;100048.84;4995892;28;20049;-77
2024/04/02 04:09:42;;;;;;;2.55;0.90;;;;;;;10.21;45.83;100049.88;4999705;28;20041;-77
2024/04/02 04:12:08;;;;;;;1.30;0.80;;;;;;;10.20;45.71;100053.59;5009977;28;20397;-77
2024/04/02 04:14:35;;;;;;;2.42;0.80;;;;;;;10.20;45.81;100057.22;4997631;28;20448;-77
2024/04/02 04:17:03;;;;;;;2.40;0.77;;;;;;;10.22;46.04;100054.31;5006304;28;20045;-77
2024/04/02 04:19:30;;;;;;;1.58;0.80;;;;;;;10.20;46.06;100053.59;5008123;28;20041;-77
2024/04/02 04:21:56;;;;;;;1.90;0.80;;;;;;;10.20;46.05;100059.06;5017161;28;20555;-77
2024/04/02 04:24:24;;;;;;;1.42;0.70;;;;;;;10.20;46.13;100053.59;5017002;28;20073;-76
2024/04/02 04:26:50;;;;;;;2.28;0.90;;;;;;;10.19;45.98;100060.94;5022303;28;20347;-77
2024/04/02 04:29:16;;;;;;;2.22;0.88;;;;;;;10.20;45.87;100059.06;4994513;28;20049;-77
2024/04/02 04:31:45;;;;;;;2.50;1.00;;;;;;;10.21;46.39;100063.53;5010140;28;20045;-76
2024/04/02 04:34:15;;;;;;;1.67;1.00;;;;;;;10.21;46.12;100069.88;5003749;28;20517;-77
2024/04/02 04:36:41;;;;;;;1.92;0.90;;;;;;;10.18;46.35;100069.28;5016407;28;20038;-77
2024/04/02 04:39:08;;;;;;;2.50;0.90;;;;;;;10.18;46.44;100070.16;5016606;28;20041;-77
2024/04/02 04:41:34;;;;;;;3.30;1.02;;;;;;;10.18;46.22;100078.38;5016316;28;20042;-76
2024/04/02 04:44:01;;;;;;;3.70;1.05;;;;;;;10.17;46.31;100075.78;5000943;28;20447;-77
2024/04/02 04:46:27;;;;;;;2.08;0.85;;;;;;;10.18;46.28;100082.97;4995741;28;20046;-76
2024/04/02 04:48:55;;;;;;;2.55;0.98;;;;;;;10.17;46.06;100082.09;5009689;28;20103;-76
2024/04/02 04:51:22;;;;;;;2.33;1.00;;;;;;;10.18;46.50;100081.09;5012077;28;20048;-74
2024/04/02 04:53:49;;;;;;;2.78;1.08;;;;;;;10.17;46.57;100089.44;5027267;28;20080;-77
2024/04/02 04:56:15;;;;;;;1.85;1.00;;;;;;;10.15;46.19;100081.38;5008084;28;20049;-76
2024/04/02 04:58:42;;;;;;;1.98;1.00;;;;;;;10.15;46.51;100089.59;5001855;28;20049;-77
2024/04/02 05:01:08;;;;;;;2.33;0.90;;;;;;;10.16;46.89;100093.19;5011762;28;20041;-76
2024/04/02 05:03:35;;;;;;;3.05;0.90;;;;;;;10.15;46.45;100086.03;5015399;28;20052;-77
2024/04/02 05:06:05;;;;;;;2.92;1.00;;;;;;;10.18;46.84;100092.03;4994478;28;20038;-77
2024/04/02 05:08:35;;;;;;;1.83;1.10;;;;;;;10.16;46.62;100094.06;5011094;28;20410;-77
2024/04/02 05:11:03;;;;;;;1.83;1.15;;;;;;;10.16;46.63;100094.06;4997379;28;20042;-76
2024/04/02 05:13:31;;;;;;;2.88;1.10;;;;;;;10.17;47.13;100100.38;5012427;28;20050;-77
2024/04/02 05:15:57;;;;;;;3.40;1.15;;;;;;;10.15;46.77;100095.06;5014055;28;20037;-76
2024/04/02 05:18:24;;;;;;;2.30;1.00;;;;;;;10.16;46.95;100099.53;4995183;28;20516;-76
2024/04/02 05:20:51;;;;;;;1.98;0.98;;;;;;;10.16;46.90;100105.00;5012992;28;20045;-76
2024/04/02 05:23:18;;;;;;;2.53;1.20;;;;;;;10.16;46.98;100110.47;4991946;28;20080;-76
2024/04/02 05:25:45;;;;;;;2.05;1.00;;;;;;;10.18;47.30;100105.72;5007147;28;20087;-76
2024/04/02 05:28:12;;;;;;;2.17;1.00;;;;;;;10.17;47.33;100111.31;5014986;28;20038;-76
2024/04/02 05:30:38;;;;;;;2.80;1.17;;;;;;;10.18;47.12;100115.78;5011291;28;20481;-76
2024/04/02 05:33:05;;;;;;;2.40;1.08;;;;;;;10.18;47.08;100115.78;4992557;28;20045;-76
2024/04/02 05:35:31;;;;;;;3.03;1.17;;;;;;;10.18;47.30;100126.72;5013277;28;20045;-76
2024/04/02 05:37:58;;;;;;;3.58;1.08;;;;;;;10.18;47.16;100123.97;4999232;28;20046;-76
2024/04/02 05:40:24;;;;;;;2.28;0.90;;;;;;;10.17;47.20;100125.00;5008674;28;20030;-76
2024/04/02 05:42:53;;;;;;;2.05;1.02;;;;;;;10.19;46.82;100128.44;5008995;28;20094;-76
2024/04/02 05:45:19;;;;;;;1.75;0.90;;;;;;;10.17;46.89;100131.31;5010435;28;20041;-76
2024/04/02 05:47:46;;;;;;;2.85;1.90;;;;;;;10.19;47.16;100132.03;5010660;28;20045;-76
2024/04/02 05:50:14;;;;;;;2.40;0.95;;;;;;;10.19;47.02;100142.97;5010265;28;20052;-78
2024/04/02 05:52:41;;;;;;;2.10;0.82;;;;;;;10.19;47.05;100145.72;5012018;28;20045;-76
2024/04/02 05:55:07;;;;;;;3.03;1.20;;;;;;;10.19;46.89;100144.84;4991109;28;20041;-75
2024/04/02 05:57:34;;;;;;;1.98;0.90;;;;;;;10.19;46.93;100148.44;5008720;28;20081;-76
2024/04/02 06:00:05;;;;;;;3.50;1.00;;;;;;;10.21;46.75;100156.50;5020351;28;20049;-76
2024/04/02 06:02:39;;;;;;;2.50;1.23;;;;;;;10.17;46.65;100147.72;5015850;28;20050;-76
2024/04/02 06:05:05;;;;;;;2.70;0.93;;;;;;;10.19;46.74;100153.06;5004594;28;20056;-76
2024/04/02 06:07:32;;;;;;;1.92;1.02;;;;;;;10.18;46.53;100157.66;5000435;28;20049;-73
2024/04/02 06:09:58;;;;;;;3.22;0.90;;;;;;;10.19;46.77;100155.78;5008746;28;20037;-77
2024/04/02 06:12:25;;;;;;;2.92;1.00;;;;;;;10.19;46.81;100162.13;5008525;28;20127;-77
2024/04/02 06:14:51;;;;;;;4.05;1.30;;;;;;;10.19;46.39;100173.06;4995493;28;20049;-76
2024/04/02 06:17:19;;;;;;;4.20;1.35;;;;;;;10.20;46.77;100168.47;5011017;28;20126;-77
2024/04/02 06:19:45;;;;;;;3.47;1.00;;;;;;;10.20;46.67;100166.59;5008027;28;20045;-77
2024/04/02 06:22:12;;;;;;;3.85;1.10;;;;;;;10.21;46.82;100172.91;4996116;28;20283;-77
2024/04/02 06:24:38;;;;;;;2.65;1.00;;;;;;;10.20;46.30;100176.66;5009973;28;20050;-77
2024/04/02 06:27:06;;;;;;;3.78;1.00;;;;;;;10.21;46.46;100170.19;4993044;28;20060;-77
2024/04/02 06:29:33;;;;;;;5.38;1.17;;;;;;;10.21;46.26;100172.91;4990195;28;20049;-77
2024/04/02 06:32:00;;;;;;;2.22;0.90;;;;;;;10.21;46.87;100178.38;5005293;28;20443;-77
2024/04/02 06:34:28;;;;;;;3.10;1.10;;;;;;;10.24;46.47;100178.06;5000838;28;20045;-77
2024/04/02 06:36:55;;;;;;;3.35;1.10;;;;;;;10.23;46.64;100176.38;5016135;28;20034;-77
2024/04/02 06:39:21;;;;;;;5.18;1.17;;;;;;;10.27;46.83;100179.66;5006762;28;20092;-77
2024/04/02 06:41:48;;;;;;;2.95;1.35;;;;;;;10.25;47.00;100179.78;4992037;28;20409;-77
2024/04/02 06:44:14;;;;;;;1.90;1.00;;;;;;;10.29;46.33;100192.19;5007728;28;20049;-76
2024/04/02 06:46:41;;;;;;;3.33;1.30;;;;;;;10.30;46.78;100190.31;5005311;28;20429;-77
2024/04/02 06:49:07;;;;;;;2.13;0.90;;;;;;;10.31;46.60;100181.09;5008644;28;20052;-77
2024/04/02 06:51:35;;;;;;;3.45;1.30;;;;;;;10.34;46.76;100189.00;4996791;28;20505;-77
2024/04/02 06:54:01;;;;;;;6.05;1.30;;;;;;;10.35;46.95;100188.84;5012437;28;20045;-77
2024/04/02 06:56:28;;;;;;;3.67;1.10;;;;;;;10.38;46.95;100187.69;5011597;28;20041;-76
2024/04/02 06:58:54;;;;;;;3.30;1.38;;;;;;;10.43;46.83;100186.22;4990196;28;25708;-77
2024/04/02 07:01:22;;;;;;;4.43;1.35;;;;;;;10.47;46.67;100190.41;5010642;28;20049;-76
2024/04/02 07:03:48;;;;;;;3.47;1.33;;;;;;;10.50;46.54;100187.34;4993690;28;20083;-81
2024/04/02 07:06:15;;;;;;;3.38;1.23;;;;;;;10.54;46.53;100190.69;5017917;28;20045;-79
2024/04/02 07:08:46;;;;;;;3.20;1.08;;;;;;;10.59;46.21;100193.81;5001261;28;20038;-78
2024/04/02 07:11:13;;;;;;;6.55;1.52;;;;;;;10.60;46.07;100193.66;5040511;28;20052;-77
2024/04/02 07:13:40;;;;;;;4.07;1.13;;;;;;;10.64;46.07;100201.59;5019357;28;20040;-77
2024/04/02 07:16:07;;;;;;;4.28;1.08;;;;;;;10.65;46.28;100198.69;4996700;28;20049;-77
2024/04/02 07:18:35;;;;;;;4.03;1.67;;;;;;;10.69;45.99;100204.72;4994076;28;20041;-78
2024/04/02 07:21:04;;;;;;;4.30;1.23;;;;;;;10.70;46.04;100204.59;5013695;28;20045;-78
2024/04/02 07:23:31;;;;;;;4.20;1.10;;;;;;;10.71;45.90;100213.66;5014338;28;20049;-78
2024/04/02 07:25:59;;;;;;;2.90;1.30;;;;;;;10.73;45.62;100219.84;5015616;28;20037;-78
2024/04/02 07:28:26;;;;;;;3.00;1.20;;;;;;;10.74;45.73;100205.13;5011502;28;20100;-78
2024/04/02 07:30:54;;;;;;;5.10;1.20;;;;;;;10.75;45.88;100223.28;5015802;28;20060;-77
2024/04/02 07:33:20;;;;;;;5.30;1.38;;;;;;;10.75;45.98;100220.53;5016116;28;20194;-77
2024/04/02 07:35:48;;;;;;;3.53;1.10;;;;;;;10.76;45.30;100222.25;5011392;28;20105;-77
2024/04/02 07:38:14;;;;;;;4.03;1.10;;;;;;;10.78;45.18;100231.19;5007290;28;20052;-73
2024/04/02 07:40:42;;;;;;;3.78;1.38;;;;;;;10.78;45.50;100234.78;4993702;28;20042;-77
2024/04/02 07:43:09;;;;;;;3.00;1.08;;;;;;;10.80;45.23;100240.13;5011828;28;20049;-77
2024/04/02 07:45:37;;;;;;;4.88;1.35;;;;;;;10.80;45.43;100243.72;5024813;28;20045;-78
2024/04/02 07:48:03;;;;;;;4.30;1.40;;;;;;;10.81;45.27;100245.41;5008078;28;20037;-77
2024/04/02 07:50:30;;;;;;;3.88;1.10;;;;;;;10.81;45.08;100250.06;5006461;28;20416;-77
2024/04/02 07:52:56;;;;;;;4.68;1.30;;;;;;;10.82;44.80;100252.63;4998915;28;20046;-77
2024/04/02 07:55:23;;;;;;;5.10;1.67;;;;;;;10.82;44.41;100257.22;4986165;28;20120;-74
2024/04/02 07:57:49;;;;;;;4.63;1.30;;;;;;;10.83;44.81;100264.44;4988408;28;20073;-77
2024/04/02 08:00:18;;;;;;;3.28;1.00;;;;;;;10.83;44.73;100248.00;5012762;23;20048;-77
2024/04/02 08:02:46;;;;;;;6.03;1.20;;;;;;;10.82;44.66;100254.50;5005348;28;20067;-77
2024/04/02 08:05:13;;;;;;;5.05;1.20;;;;;;;10.81;44.56;100261.00;4990539;28;20038;-77
2024/04/02 08:07:40;;;;;;;2.65;1.20;;;;;;;10.83;44.65;100261.69;5004765;28;20424;-76
2024/04/02 08:10:08;;;;;;;4.53;1.98;;;;;;;10.83;44.55;100267.19;4985399;28;20448;-76
2024/04/02 08:12:34;;;;;;;4.50;1.40;;;;;;;10.81;44.40;100264.59;5000310;28;20038;-77
2024/04/02 08:15:01;;;;;;;2.15;1.10;;;;;;;10.81;44.42;100261.84;4988677;28;20626;-77
2024/04/02 08:17:28;;;;;;;3.78;1.02;;;;;;;10.85;44.25;100262.41;4984813;28;20052;-76
2024/04/02 08:19:56;;;;;;;3.78;1.27;;;;;;;10.84;44.60;100260.69;5008123;28;20060;-76
2024/04/02 08:22:22;;;;;;;2.85;1.17;;;;;;;10.85;44.47;100266.03;5000338;28;20041;-76
2024/04/02 08:24:53;;;;;;;3.75;1.00;;;;;;;10.87;44.44;100265.88;4999472;28;20087;-76
2024/04/02 08:27:19;;;;;;;2.97;1.27;;;;;;;10.86;44.74;100275.97;5003863;28;20049;-77
2024/04/02 08:29:46;;;;;;;2.55;1.00;;;;;;;10.89;44.44;100272.94;5011641;28;20504;-77
2024/04/02 08:32:12;;;;;;;4.30;1.13;;;;;;;10.92;44.38;100274.50;4991719;28;20053;-77
2024/04/02 08:34:40;;;;;;;3.42;1.30;;;;;;;10.93;43.90;100279.81;5005819;28;20057;-76
2024/04/02 08:37:06;;;;;;;3.17;1.25;;;;;;;10.94;44.29;100277.94;4988916;28;20099;-77
2024/04/02 08:39:33;;;;;;;4.90;1.40;;;;;;;10.95;44.12;100282.41;5006480;28;20049;-77
2024/04/02 08:42:01;;;;;;;2.85;1.10;;;;;;;10.97;44.30;100281.25;5000203;28;20037;-77
2024/04/02 08:44:31;;;;;;;5.57;1.17;;;;;;;10.99;44.04;100272.88;5002848;28;20061;-77
2024/04/02 08:46:57;;;;;;;3.85;1.33;;;;;;;11.00;44.31;100274.59;4990025;28;20475;-76
2024/04/02 08:49:25;;;;;;;4.35;1.05;;;;;;;11.02;44.11;100288.13;5005341;28;20042;-77
2024/04/02 08:51:53;;;;;;;3.05;1.05;;;;;;;11.05;44.10;100285.97;4986548;28;20091;-76
2024/04/02 08:54:20;;;;;;;3.10;1.15;;;;;;;11.05;43.99;100285.09;4999215;28;20417;-76
2024/04/02 08:56:47;;;;;;;3.45;0.88;;;;;;;11.06;43.72;100289.56;4986526;28;20377;-77
2024/04/02 08:59:14;;;;;;;4.05;1.40;;;;;;;11.07;43.80;100291.28;4984930;28;20050;-77
2024/04/02 09:01:41;;;;;;;2.95;1.00;;;;;;;11.09;43.81;100283.78;5002082;28;20052;-75
2024/04/02 09:04:09;;;;;;;3.20;1.00;;;;;;;11.10;43.66;100293.72;5000437;28;20746;-76
2024/04/02 09:06:35;;;;;;;3.78;1.10;;;;;;;11.09;43.58;100295.59;5000122;28;20056;-77
2024/04/02 09:09:05;;;;;;;3.67;1.60;;;;;;;11.11;43.53;100296.31;5001290;28;20037;-77
2024/04/02 09:11:32;;;;;;;3.97;1.17;;;;;;;11.11;43.44;100303.66;4984617;28;20057;-76
2024/04/02 09:14:00;;;;;;;4.18;1.20;;;;;;;11.11;43.26;100301.78;4988014;28;20060;-79
2024/04/02 09:16:30;;;;;;;1.88;0.98;;;;;;;11.12;42.96;100302.66;5007266;28;20502;-78
2024/04/02 09:18:59;;;;;;;4.05;1.20;;;;;;;11.11;43.37;100307.28;4987964;28;20053;-78
2024/04/02 09:21:26;;;;;;;2.53;1.10;;;;;;;11.11;43.46;100307.28;4993173;28;20053;-77
2024/04/02 09:23:54;;;;;;;3.53;1.10;;;;;;;11.11;43.39;100314.63;4994494;28;20038;-78
2024/04/02 09:26:23;;;;;;;1.95;0.88;;;;;;;11.13;43.67;100313.47;5014756;28;20483;-78
2024/04/02 09:28:50;;;;;;;2.78;1.15;;;;;;;11.12;43.85;100317.22;4990076;28;20084;-77
2024/04/02 09:31:16;;;;;;;4.43;1.23;;;;;;;11.14;43.76;100320.63;5005722;28;20046;-76
2024/04/02 09:33:48;;;;;;;2.72;1.00;;;;;;;11.16;43.66;100315.00;5016142;28;20072;-78
2024/04/02 09:36:38;;;;;;;3.08;1.30;;;;;;;11.18;43.31;100316.59;5012247;28;20049;-78
2024/04/02 09:39:08;;;;;;;3.53;1.02;;;;;;;11.19;43.55;100320.19;5012089;28;20049;-76
2024/04/02 09:41:38;;;;;;;3.38;0.95;;;;;;;11.22;43.27;100319.91;4998977;28;20048;-79
2024/04/02 09:44:08;;;;;;;4.10;1.00;;;;;;;11.23;43.80;100316.13;5019008;28;20334;-78
2024/04/02 09:46:38;;;;;;;2.85;1.00;;;;;;;11.27;43.71;100320.31;4998921;28;20061;-78
2024/04/02 09:49:07;;;;;;;2.75;0.93;;;;;;;11.28;43.30;100324.78;5023161;28;20038;-78
2024/04/02 09:51:34;;;;;;;2.35;0.85;;;;;;;11.29;43.46;100323.75;5000510;28;20121;-78
2024/04/02 09:54:03;;;;;;;3.10;1.08;;;;;;;11.32;43.54;100328.91;5016178;28;20113;-79
2024/04/02 09:56:31;;;;;;;2.97;1.00;;;;;;;11.33;43.37;100328.78;4995521;28;20120;-79
2024/04/02 09:59:00;;;;;;;4.60;1.00;;;;;;;11.36;43.10;100333.09;5002943;28;20042;-78
2024/04/02 10:01:28;;;;;;;2.75;1.20;;;;;;;11.36;43.15;100342.19;5001268;28;20053;-78
2024/04/02 10:04:00;;;;;;;1.98;0.75;;;;;;;11.37;43.35;100332.09;4997883;28;20155;-77
2024/04/02 10:06:26;;;;;;;2.00;0.80;;;;;;;11.38;43.13;100341.16;4994062;28;20088;-78
2024/04/02 10:09:00;;;;;;;2.35;0.90;;;;;;;11.40;42.69;100323.53;5008078;28;20056;-77
2024/04/02 10:11:37;;;;;;;3.38;1.00;;;;;;;11.42;42.88;100331.59;4998534;28;20054;-78
2024/04/02 10:14:07;;;;;;;3.45;0.82;;;;;;;11.41;43.28;100333.50;5002970;28;20404;-78
2024/04/02 10:16:34;;;;;;;4.57;0.90;;;;;;;11.42;42.80;100337.97;5009610;28;20046;-77
2024/04/02 10:19:02;;;;;;;4.07;1.15;;;;;;;11.44;42.90;100335.94;5002165;28;20057;-78
2024/04/02 10:21:31;;;;;;;3.25;1.05;;;;;;;11.46;43.03;100324.81;4999367;28;20037;-78
2024/04/02 10:23:59;;;;;;;2.85;1.27;;;;;;;11.46;43.07;100325.69;5007454;28;20037;-79
2024/04/02 10:26:30;;;;;;;4.85;1.30;;;;;;;11.50;42.77;100329.84;5002171;28;20050;-79
2024/04/02 10:28:57;;;;;;;3.13;1.08;;;;;;;11.50;43.07;100321.63;5022978;28;20041;-78
2024/04/02 10:31:36;;;;;;;3.95;0.90;;;;;;;11.55;42.52;100311.06;4996540;28;20057;-82
2024/04/02 10:34:06;;;;;;;2.83;0.93;;;;;;;11.54;43.52;100323.03;4997948;28;20069;-78
2024/04/02 10:36:33;;;;;;;2.35;1.13;;;;;;;11.60;43.15;100327.03;5014902;28;20072;-78
2024/04/02 10:38:59;;;;;;;3.17;0.90;;;;;;;11.62;43.42;100311.34;5000177;28;20156;-79
2024/04/02 10:41:31;;;;;;;1.70;0.77;;;;;;;11.69;43.06;100320.66;5017018;28;20397;-77
2024/04/02 10:43:57;;;;;;;2.88;0.73;;;;;;;11.70;43.02;100314.19;5012958;28;20455;-79
2024/04/02 10:46:26;;;;;;;2.03;0.85;;;;;;;11.77;42.88;100322.63;5010315;28;20072;-78
2024/04/02 10:48:57;;;;;;;4.57;1.33;;;;;;;11.82;42.86;100314.78;4994314;28;20038;-79
2024/04/02 10:51:26;;;;;;;2.03;0.82;;;;;;;11.84;43.19;100312.75;4998196;28;20059;-78
2024/04/02 10:53:52;;;;;;;2.83;0.93;;;;;;;11.88;42.82;100309.56;5008600;28;20045;-78
2024/04/02 10:56:20;;;;;;;2.67;0.93;;;;;;;11.91;42.78;100309.25;5000375;28;20060;-78
2024/04/02 10:58:47;;;;;;;4.30;1.20;;;;;;;11.96;43.24;100330.72;5002725;28;20033;-78
2024/04/02 11:01:14;;;;;;;2.45;0.90;;;;;;;11.98;42.76;100312.22;5002489;28;20054;-78
2024/04/02 11:03:41;;;;;;;3.30;1.10;;;;;;;12.02;42.63;100313.63;5000942;28;20061;-78
2024/04/02 11:06:11;;;;;;;3.88;1.13;;;;;;;12.06;42.32;100315.88;5013114;28;20095;-77
2024/04/02 11:08:38;;;;;;;4.07;1.08;;;;;;;12.08;42.53;100318.47;4994340;28;20543;-77
2024/04/02 11:11:05;;;;;;;2.45;0.90;;;;;;;12.11;42.51;100315.44;4994549;28;20045;-77
2024/04/02 11:13:31;;;;;;;4.03;1.00;;;;;;;12.13;42.83;100315.28;4997309;28;20053;-78
2024/04/02 11:15:58;;;;;;;4.18;1.08;;;;;;;12.18;42.74;100322.00;5005158;28;20125;-79
2024/04/02 11:18:26;;;;;;;2.67;0.75;;;;;;;12.20;42.59;100324.59;5013854;28;20056;-78
2024/04/02 11:20:57;;;;;;;4.50;1.00;;;;;;;12.24;42.56;100339.72;4999351;28;20060;-78
2024/04/02 11:26:15;;;;;;;2.50;0.90;;;;;;;12.23;43.60;100348.97;4993218;28;20061;-79
2024/04/02 11:28:43;;;;;;;4.43;0.90;;;;;;;12.22;43.68;100344.50;5017734;28;20038;-79
2024/04/02 11:31:09;;;;;;;2.35;1.05;;;;;;;12.21;43.52;100342.78;5002148;28;20049;-78